Ginga — JJ4054 — position and weather

sailwx.info

Track history (hours):
 
Tides and Currents Weather Stations Pressure Air Temp Water Temp Dewpoint Dewpoint Depression Visibility Wind Speed Wind Dir Waves Ship Positions

Ginga

Last reported at 2017-May-25 04:49 UTC. Time now 2017-May-26 19:00 UTC.
Position N 34°39' E 135°10'.

Length 28 m; draft 1.6 m.

Type: Other ship. MMSI: 431301704.

Date/timePositionNaut miles runAvg speedWind from/ knotsBaromVisibWave heightAir tempDewpointWater temp
2017-May-25 04:49N 34°39' E 135°10'310.6
2017-May-25 04:30N 34°36' E 135°09'11 4.9
2017-May-25 02:15N 34°25' E 135°05'414.8
2017-May-25 01:59N 34°28' E 135°09'714.8
2017-May-25 01:30N 34°32' E 135°16'5 9.5
2017-May-25 00:56N 34°33' E 135°22'2 3.5
2017-May-25 00:30N 34°33' E 135°24'1 1.8
2017-May-25 00:00N 34°34' E 135°23'816.5
2017-May-24 23:30N 34°35' E 135°13'815.7
2017-May-24 22:58N 34°37' E 135°03'0 0.4
2017-May-24 22:30N 34°38' E 135°03'0 0.0
2017-May-24 19:38N 34°38' E 135°03'210.6
2017-May-24 19:24N 34°38' E 135°00'1 1.4
2017-May-24 18:56N 34°37' E 135°00'4 9.8
2017-May-24 18:30N 34°36' E 135°05'3 5.6
2017-May-24 18:00N 34°36' E 135°08'3 6.8
2017-May-24 17:30N 34°39' E 135°09'0 0.0
2017-May-24 17:00N 34°39' E 135°09'0 0.0
2017-May-24 02:54N 34°39' E 135°09'513.8
2017-May-24 02:30N 34°36' E 135°15'8 9.9
2017-May-24 01:43N 34°33' E 135°24'4 7.8
2017-May-24 01:10N 34°33' E 135°19'210.8
2017-May-24 00:56N 34°33' E 135°16'511.1
2017-May-24 00:30N 34°30' E 135°11'13 4.6
2017-May-23 21:46N 34°21' E 135°00'415.6
2017-May-23 21:30N 34°25' E 135°02'816.3
2017-May-23 21:00N 34°32' E 135°08'714.8
2017-May-23 20:30N 34°39' E 135°10'0 0.9
2017-May-23 20:00N 34°39' E 135°09'  
2017-May-20 21:40N 34°39' E 135°09'1 3.7
2017-May-20 21:30N 34°38' E 135°10'815.5
2017-May-20 21:00N 34°38' E 135°00'2 4.5
2017-May-20 20:30N 34°37' E 135°02'611.7
2017-May-20 20:00N 34°36' E 135°09'3 6.4
2017-May-20 19:30N 34°39' E 135°10'1 1.1
2017-May-20 19:00N 34°39' E 135°09'0 0.0
2017-May-20 05:07N 34°39' E 135°09'0 4.3
2017-May-20 05:01N 34°39' E 135°10'1015.3
2017-May-20 04:21N 34°37' E 134°58'3 7.3
2017-May-20 03:59N 34°37' E 135°01'5 9.4
2017-May-20 03:30N 34°36' E 135°06'2 3.3
2017-May-20 03:00N 34°35' E 135°08'2 3.9
2017-May-20 02:30N 34°34' E 135°06'510.4
2017-May-20 01:59N 34°37' E 135°00'1 1.8
2017-May-20 01:30N 34°37' E 135°01'4 7.7
2017-May-20 01:00N 34°35' E 135°05'4 7.4
2017-May-20 00:30N 34°37' E 135°09'2 3.7
2017-May-20 00:00N 34°39' E 135°09'0 0.0
2017-May-19 23:30N 34°39' E 135°09'0 0.0
2017-May-19 04:56N 34°39' E 135°09'511.5
2017-May-19 04:30N 34°35' E 135°06'6 3.3
2017-May-19 02:42N 34°36' E 134°59'2 7.1
2017-May-19 02:23N 34°36' E 135°02'1 2.0
2017-May-19 01:59N 34°36' E 135°02'3 4.2
2017-May-19 01:12N 34°37' E 134°58'311.0
2017-May-19 00:54N 34°38' E 135°02'1 0.1
2017-May-18 18:21N 34°38' E 135°03'412.1
2017-May-18 18:00N 34°38' E 134°58'0 0.9
2017-May-18 17:30N 34°38' E 134°59'612.7
2017-May-18 17:00N 34°35' E 135°06'4 8.9
2017-May-18 16:30N 34°38' E 135°10'1 1.3
2017-May-18 16:00N 34°39' E 135°09'0 0.0
2017-May-18 10:39N 34°39' E 135°09'1 6.0
2017-May-18 10:30N 34°38' E 135°10'611.2
2017-May-18 10:00N 34°34' E 135°06'7 6.8
2017-May-18 08:57N 34°38' E 134°58'4 2.1
2017-May-18 06:50N 34°37' E 135°03'2 6.4
2017-May-18 06:29N 34°37' E 135°01'2 2.3
2017-May-18 05:42N 34°37' E 134°58'212.6
2017-May-18 05:31N 34°37' E 135°01'714.6
2017-May-18 05:00N 34°39' E 135°10'0 0.2
2017-May-18 02:40N 34°39' E 135°09'1 5.6
2017-May-18 02:30N 34°39' E 135°11'1 2.8
2017-May-18 02:00N 34°40' E 135°11'815.9
2017-May-18 01:31N 34°36' E 135°19'4 7.8
2017-May-18 00:56N 34°34' E 135°24'5 6.5
2017-May-18 00:06N 34°33' E 135°18'110.0
2017-May-17 23:58N 34°32' E 135°16'612.2
2017-May-17 23:29N 34°28' E 135°11'2012.2
2017-May-17 21:49N 34°10' E 134°59'1511.7
2017-May-17 20:30N 34°26' E 135°00'815.3
2017-May-17 20:00N 34°33' E 135°02'3 1.1
2017-May-17 17:10N 34°36' E 135°01'1 9.0
2017-May-17 17:00N 34°37' E 134°59'3 5.5
2017-May-17 16:30N 34°37' E 135°02'4 9.0
2017-May-17 16:00N 34°35' E 135°07'5 9.0
2017-May-17 15:31N 34°39' E 135°09'0 0.0
2017-May-16 06:37N 34°39' E 135°09'0 3.9
2017-May-16 06:30N 34°39' E 135°10'10 7.9
2017-May-16 05:15N 34°37' E 134°58'312.1
2017-May-16 04:58N 34°37' E 135°02'613.6
2017-May-16 04:30N 34°39' E 135°10'0 0.9
2017-May-16 03:59N 34°39' E 135°09'0 0.0
2017-May-16 03:30N 34°39' E 135°09'0 0.0
2017-May-15 16:38N 34°39' E 135°09'0 3.8
2017-May-15 16:31N 34°39' E 135°10'713.5
2017-May-15 16:00N 34°36' E 135°02'5 4.7
2017-May-15 14:57N 34°36' E 134°56'511.3
2017-May-15 14:30N 34°37' E 135°02'6 6.1
2017-May-15 13:30N 34°39' E 135°09'0 0.0
2017-May-15 07:46N 34°39' E 135°09'2 8.9
2017-May-15 07:30N 34°38' E 135°07'917.4
2017-May-15 07:00N 34°37' E 134°57'4 6.3
2017-May-15 06:25N 34°37' E 135°01'4 8.4
2017-May-15 06:00N 34°36' E 135°05'1 1.9
2017-May-15 05:30N 34°36' E 135°06'  
Track history (hours):
 
Tides and Currents Weather Stations Pressure Air Temp Water Temp Dewpoint Dewpoint Depression Visibility Wind Speed Wind Dir Waves Ship Positions

Ginga

Last reported at 2017-May-25 04:49 UTC. Time now 2017-May-26 19:00 UTC.
Position N 34°39' E 135°10'.

Length 28 m; draft 1.6 m.

Type: Other ship. MMSI: 431301704.

Date/timePositionNaut miles runAvg speedWind from/ knotsBaromVisibWave heightAir tempDewpointWater temp
2017-May-25 04:49N 34°39' E 135°10'310.6
2017-May-25 04:30N 34°36' E 135°09'11 4.9
2017-May-25 02:15N 34°25' E 135°05'414.8
2017-May-25 01:59N 34°28' E 135°09'714.8
2017-May-25 01:30N 34°32' E 135°16'5 9.5
2017-May-25 00:56N 34°33' E 135°22'2 3.5
2017-May-25 00:30N 34°33' E 135°24'1 1.8
2017-May-25 00:00N 34°34' E 135°23'816.5
2017-May-24 23:30N 34°35' E 135°13'815.7
2017-May-24 22:58N 34°37' E 135°03'0 0.4
2017-May-24 22:30N 34°38' E 135°03'0 0.0
2017-May-24 19:38N 34°38' E 135°03'210.6
2017-May-24 19:24N 34°38' E 135°00'1 1.4
2017-May-24 18:56N 34°37' E 135°00'4 9.8
2017-May-24 18:30N 34°36' E 135°05'3 5.6
2017-May-24 18:00N 34°36' E 135°08'3 6.8
2017-May-24 17:30N 34°39' E 135°09'0 0.0
2017-May-24 17:00N 34°39' E 135°09'0 0.0
2017-May-24 02:54N 34°39' E 135°09'513.8
2017-May-24 02:30N 34°36' E 135°15'8 9.9
2017-May-24 01:43N 34°33' E 135°24'4 7.8
2017-May-24 01:10N 34°33' E 135°19'210.8
2017-May-24 00:56N 34°33' E 135°16'511.1
2017-May-24 00:30N 34°30' E 135°11'13 4.6
2017-May-23 21:46N 34°21' E 135°00'415.6
2017-May-23 21:30N 34°25' E 135°02'816.3
2017-May-23 21:00N 34°32' E 135°08'714.8
2017-May-23 20:30N 34°39' E 135°10'0 0.9
2017-May-23 20:00N 34°39' E 135°09'  
2017-May-20 21:40N 34°39' E 135°09'1 3.7
2017-May-20 21:30N 34°38' E 135°10'815.5
2017-May-20 21:00N 34°38' E 135°00'2 4.5
2017-May-20 20:30N 34°37' E 135°02'611.7
2017-May-20 20:00N 34°36' E 135°09'3 6.4
2017-May-20 19:30N 34°39' E 135°10'1 1.1
2017-May-20 19:00N 34°39' E 135°09'0 0.0
2017-May-20 05:07N 34°39' E 135°09'0 4.3
2017-May-20 05:01N 34°39' E 135°10'1015.3
2017-May-20 04:21N 34°37' E 134°58'3 7.3
2017-May-20 03:59N 34°37' E 135°01'5 9.4
2017-May-20 03:30N 34°36' E 135°06'2 3.3
2017-May-20 03:00N 34°35' E 135°08'2 3.9
2017-May-20 02:30N 34°34' E 135°06'510.4
2017-May-20 01:59N 34°37' E 135°00'1 1.8
2017-May-20 01:30N 34°37' E 135°01'4 7.7
2017-May-20 01:00N 34°35' E 135°05'4 7.4
2017-May-20 00:30N 34°37' E 135°09'2 3.7
2017-May-20 00:00N 34°39' E 135°09'0 0.0
2017-May-19 23:30N 34°39' E 135°09'0 0.0
2017-May-19 04:56N 34°39' E 135°09'511.5
2017-May-19 04:30N 34°35' E 135°06'6 3.3
2017-May-19 02:42N 34°36' E 134°59'2 7.1
2017-May-19 02:23N 34°36' E 135°02'1 2.0
2017-May-19 01:59N 34°36' E 135°02'3 4.2
2017-May-19 01:12N 34°37' E 134°58'311.0
2017-May-19 00:54N 34°38' E 135°02'1 0.1
2017-May-18 18:21N 34°38' E 135°03'412.1
2017-May-18 18:00N 34°38' E 134°58'0 0.9
2017-May-18 17:30N 34°38' E 134°59'612.7
2017-May-18 17:00N 34°35' E 135°06'4 8.9
2017-May-18 16:30N 34°38' E 135°10'1 1.3
2017-May-18 16:00N 34°39' E 135°09'0 0.0
2017-May-18 10:39N 34°39' E 135°09'1 6.0
2017-May-18 10:30N 34°38' E 135°10'611.2
2017-May-18 10:00N 34°34' E 135°06'7 6.8
2017-May-18 08:57N 34°38' E 134°58'4 2.1
2017-May-18 06:50N 34°37' E 135°03'2 6.4
2017-May-18 06:29N 34°37' E 135°01'2 2.3
2017-May-18 05:42N 34°37' E 134°58'212.6
2017-May-18 05:31N 34°37' E 135°01'714.6
2017-May-18 05:00N 34°39' E 135°10'0 0.2
2017-May-18 02:40N 34°39' E 135°09'1 5.6
2017-May-18 02:30N 34°39' E 135°11'1 2.8
2017-May-18 02:00N 34°40' E 135°11'815.9
2017-May-18 01:31N 34°36' E 135°19'4 7.8
2017-May-18 00:56N 34°34' E 135°24'5 6.5
2017-May-18 00:06N 34°33' E 135°18'110.0
2017-May-17 23:58N 34°32' E 135°16'612.2
2017-May-17 23:29N 34°28' E 135°11'2012.2
2017-May-17 21:49N 34°10' E 134°59'1511.7
2017-May-17 20:30N 34°26' E 135°00'815.3
2017-May-17 20:00N 34°33' E 135°02'3 1.1
2017-May-17 17:10N 34°36' E 135°01'1 9.0
2017-May-17 17:00N 34°37' E 134°59'3 5.5
2017-May-17 16:30N 34°37' E 135°02'4 9.0
2017-May-17 16:00N 34°35' E 135°07'5 9.0
2017-May-17 15:31N 34°39' E 135°09'0 0.0
2017-May-16 06:37N 34°39' E 135°09'0 3.9
2017-May-16 06:30N 34°39' E 135°10'10 7.9
2017-May-16 05:15N 34°37' E 134°58'312.1
2017-May-16 04:58N 34°37' E 135°02'613.6
2017-May-16 04:30N 34°39' E 135°10'0 0.9
2017-May-16 03:59N 34°39' E 135°09'0 0.0
2017-May-16 03:30N 34°39' E 135°09'0 0.0
2017-May-15 16:38N 34°39' E 135°09'0 3.8
2017-May-15 16:31N 34°39' E 135°10'713.5
2017-May-15 16:00N 34°36' E 135°02'5 4.7
2017-May-15 14:57N 34°36' E 134°56'511.3
2017-May-15 14:30N 34°37' E 135°02'6 6.1
2017-May-15 13:30N 34°39' E 135°09'0 0.0
2017-May-15 07:46N 34°39' E 135°09'2 8.9
2017-May-15 07:30N 34°38' E 135°07'917.4
2017-May-15 07:00N 34°37' E 134°57'4 6.3
2017-May-15 06:25N 34°37' E 135°01'4 8.4
2017-May-15 06:00N 34°36' E 135°05'1 1.9
2017-May-15 05:30N 34°36' E 135°06'  

Dump ship's entire track history